sensor_id;sensor_type;location;lat;lon;timestamp;temperature;humidity
67161;DHT22;54088;52.238;21.104;2022-09-21T00:00:04;10.80;93.30
67161;DHT22;54088;52.238;21.104;2022-09-21T00:02:29;10.80;93.10
67161;DHT22;54088;52.238;21.104;2022-09-21T00:04:55;10.80;93.00
67161;DHT22;54088;52.238;21.104;2022-09-21T00:07:21;10.80;93.10
67161;DHT22;54088;52.238;21.104;2022-09-21T00:09:46;10.90;93.10
67161;DHT22;54088;52.238;21.104;2022-09-21T00:12:12;10.90;93.10
67161;DHT22;54088;52.238;21.104;2022-09-21T00:14:37;10.90;93.00
67161;DHT22;54088;52.238;21.104;2022-09-21T00:17:03;11.00;93.10
67161;DHT22;54088;52.238;21.104;2022-09-21T00:19:29;11.10;93.00
67161;DHT22;54088;52.238;21.104;2022-09-21T00:21:55;11.10;93.00
67161;DHT22;54088;52.238;21.104;2022-09-21T00:24:21;11.10;93.00
67161;DHT22;54088;52.238;21.104;2022-09-21T00:26:47;11.20;92.90
67161;DHT22;54088;52.238;21.104;2022-09-21T00:29:12;11.20;92.90
67161;DHT22;54088;52.238;21.104;2022-09-21T00:31:38;11.20;92.80
67161;DHT22;54088;52.238;21.104;2022-09-21T00:34:04;11.20;92.80
67161;DHT22;54088;52.238;21.104;2022-09-21T00:36:33;11.20;92.80
67161;DHT22;54088;52.238;21.104;2022-09-21T00:39:00;11.20;92.80
67161;DHT22;54088;52.238;21.104;2022-09-21T00:41:27;11.30;92.80
67161;DHT22;54088;52.238;21.104;2022-09-21T00:46:40;11.30;92.80
67161;DHT22;54088;52.238;21.104;2022-09-21T00:49:07;11.30;92.70
67161;DHT22;54088;52.238;21.104;2022-09-21T00:51:35;11.30;92.80
67161;DHT22;54088;52.238;21.104;2022-09-21T00:54:13;11.30;92.70
67161;DHT22;54088;52.238;21.104;2022-09-21T00:56:41;11.40;92.80
67161;DHT22;54088;52.238;21.104;2022-09-21T00:59:08;11.40;92.60
67161;DHT22;54088;52.238;21.104;2022-09-21T01:01:34;11.40;92.70
67161;DHT22;54088;52.238;21.104;2022-09-21T01:04:02;11.40;92.70
67161;DHT22;54088;52.238;21.104;2022-09-21T01:06:33;11.40;92.60
67161;DHT22;54088;52.238;21.104;2022-09-21T01:09:00;11.50;92.60
67161;DHT22;54088;52.238;21.104;2022-09-21T01:30:36;11.60;92.40
67161;DHT22;54088;52.238;21.104;2022-09-21T01:33:12;11.60;92.30
67161;DHT22;54088;52.238;21.104;2022-09-21T01:35:44;11.60;92.40
67161;DHT22;54088;52.238;21.104;2022-09-21T01:38:20;11.60;92.30
67161;DHT22;54088;52.238;21.104;2022-09-21T01:40:51;11.60;92.30
67161;DHT22;54088;52.238;21.104;2022-09-21T01:43:22;11.70;92.40
67161;DHT22;54088;52.238;21.104;2022-09-21T01:45:51;11.60;92.20
67161;DHT22;54088;52.238;21.104;2022-09-21T01:48:20;11.70;92.10
67161;DHT22;54088;52.238;21.104;2022-09-21T01:50:51;11.70;92.00
67161;DHT22;54088;52.238;21.104;2022-09-21T01:53:32;11.70;92.10
67161;DHT22;54088;52.238;21.104;2022-09-21T01:56:04;11.70;92.10
67161;DHT22;54088;52.238;21.104;2022-09-21T01:58:38;11.70;92.00
67161;DHT22;54088;52.238;21.104;2022-09-21T02:01:08;11.70;92.10
67161;DHT22;54088;52.238;21.104;2022-09-21T02:03:37;11.70;92.10
67161;DHT22;54088;52.238;21.104;2022-09-21T02:06:05;11.70;92.10
67161;DHT22;54088;52.238;21.104;2022-09-21T02:08:31;11.70;92.00
67161;DHT22;54088;52.238;21.104;2022-09-21T02:10:59;11.80;92.10
67161;DHT22;54088;52.238;21.104;2022-09-21T02:13:30;11.80;92.00
67161;DHT22;54088;52.238;21.104;2022-09-21T02:16:27;11.80;92.00
67161;DHT22;54088;52.238;21.104;2022-09-21T02:19:10;11.70;92.00
67161;DHT22;54088;52.238;21.104;2022-09-21T02:22:06;11.80;92.10
67161;DHT22;54088;52.238;21.104;2022-09-21T02:24:46;11.80;92.00
67161;DHT22;54088;52.238;21.104;2022-09-21T02:27:17;11.70;92.00
67161;DHT22;54088;52.238;21.104;2022-09-21T02:30:26;11.70;92.00
67161;DHT22;54088;52.238;21.104;2022-09-21T02:43:30;11.70;92.10
67161;DHT22;54088;52.238;21.104;2022-09-21T02:46:08;11.70;92.00
67161;DHT22;54088;52.238;21.104;2022-09-21T02:48:45;11.70;92.10
67161;DHT22;54088;52.238;21.104;2022-09-21T02:51:31;11.80;92.10
67161;DHT22;54088;52.238;21.104;2022-09-21T02:54:02;11.80;92.00
67161;DHT22;54088;52.238;21.104;2022-09-21T02:56:30;11.80;92.00
67161;DHT22;54088;52.238;21.104;2022-09-21T02:59:00;11.80;92.10
67161;DHT22;54088;52.238;21.104;2022-09-21T03:01:26;11.80;92.00
67161;DHT22;54088;52.238;21.104;2022-09-21T03:03:53;11.80;92.00
67161;DHT22;54088;52.238;21.104;2022-09-21T03:06:18;11.80;91.90
67161;DHT22;54088;52.238;21.104;2022-09-21T03:08:44;11.80;92.00
67161;DHT22;54088;52.238;21.104;2022-09-21T03:11:10;11.80;91.90
67161;DHT22;54088;52.238;21.104;2022-09-21T03:13:36;11.80;91.90
67161;DHT22;54088;52.238;21.104;2022-09-21T03:16:06;11.90;91.90
67161;DHT22;54088;52.238;21.104;2022-09-21T03:18:32;11.90;92.20
67161;DHT22;54088;52.238;21.104;2022-09-21T03:20:58;11.90;91.80
67161;DHT22;54088;52.238;21.104;2022-09-21T03:23:24;11.80;91.80
67161;DHT22;54088;52.238;21.104;2022-09-21T03:25:50;11.80;92.20
67161;DHT22;54088;52.238;21.104;2022-09-21T03:28:20;11.80;91.90
67161;DHT22;54088;52.238;21.104;2022-09-21T03:30:47;11.80;92.00
67161;DHT22;54088;52.238;21.104;2022-09-21T03:33:13;11.90;92.00
67161;DHT22;54088;52.238;21.104;2022-09-21T03:35:39;11.90;92.00
67161;DHT22;54088;52.238;21.104;2022-09-21T03:38:05;11.90;91.80
67161;DHT22;54088;52.238;21.104;2022-09-21T03:40:32;11.90;91.90
67161;DHT22;54088;52.238;21.104;2022-09-21T03:42:57;11.90;91.90
67161;DHT22;54088;52.238;21.104;2022-09-21T03:45:23;11.90;91.90
67161;DHT22;54088;52.238;21.104;2022-09-21T03:47:55;12.00;91.90
67161;DHT22;54088;52.238;21.104;2022-09-21T03:50:25;12.00;91.80
67161;DHT22;54088;52.238;21.104;2022-09-21T03:52:53;11.90;91.80
67161;DHT22;54088;52.238;21.104;2022-09-21T03:55:19;12.00;91.80
67161;DHT22;54088;52.238;21.104;2022-09-21T03:57:45;12.00;91.90
67161;DHT22;54088;52.238;21.104;2022-09-21T04:00:11;11.90;91.90
67161;DHT22;54088;52.238;21.104;2022-09-21T04:02:37;11.90;92.00
67161;DHT22;54088;52.238;21.104;2022-09-21T04:05:08;11.90;91.90
67161;DHT22;54088;52.238;21.104;2022-09-21T04:07:34;11.90;91.90
67161;DHT22;54088;52.238;21.104;2022-09-21T04:10:04;11.90;92.00
67161;DHT22;54088;52.238;21.104;2022-09-21T04:12:30;11.90;92.00
67161;DHT22;54088;52.238;21.104;2022-09-21T04:14:56;11.90;92.00
67161;DHT22;54088;52.238;21.104;2022-09-21T04:17:22;12.00;91.90
67161;DHT22;54088;52.238;21.104;2022-09-21T04:19:48;12.00;91.90
67161;DHT22;54088;52.238;21.104;2022-09-21T04:22:13;12.00;91.90
67161;DHT22;54088;52.238;21.104;2022-09-21T04:24:39;12.00;91.90
67161;DHT22;54088;52.238;21.104;2022-09-21T04:27:09;12.00;91.90
67161;DHT22;54088;52.238;21.104;2022-09-21T04:29:35;12.00;91.90
67161;DHT22;54088;52.238;21.104;2022-09-21T04:32:01;12.10;91.90
67161;DHT22;54088;52.238;21.104;2022-09-21T04:34:27;12.10;91.90
67161;DHT22;54088;52.238;21.104;2022-09-21T04:36:52;12.10;91.80
67161;DHT22;54088;52.238;21.104;2022-09-21T04:39:19;12.10;91.80
67161;DHT22;54088;52.238;21.104;2022-09-21T04:41:45;12.10;91.70
67161;DHT22;54088;52.238;21.104;2022-09-21T04:44:11;12.10;91.80
67161;DHT22;54088;52.238;21.104;2022-09-21T04:46:36;12.10;91.80
67161;DHT22;54088;52.238;21.104;2022-09-21T04:49:03;12.20;91.80
67161;DHT22;54088;52.238;21.104;2022-09-21T04:51:28;12.20;91.70
67161;DHT22;54088;52.238;21.104;2022-09-21T04:53:54;12.20;91.70
67161;DHT22;54088;52.238;21.104;2022-09-21T04:56:20;12.20;91.70
67161;DHT22;54088;52.238;21.104;2022-09-21T04:58:46;12.20;91.60
67161;DHT22;54088;52.238;21.104;2022-09-21T05:01:12;12.20;91.60
67161;DHT22;54088;52.238;21.104;2022-09-21T05:03:38;12.30;91.60
67161;DHT22;54088;52.238;21.104;2022-09-21T05:06:04;12.30;91.60
67161;DHT22;54088;52.238;21.104;2022-09-21T05:08:30;12.30;91.50
67161;DHT22;54088;52.238;21.104;2022-09-21T05:11:16;12.30;91.50
67161;DHT22;54088;52.238;21.104;2022-09-21T05:13:44;12.40;91.50
67161;DHT22;54088;52.238;21.104;2022-09-21T05:16:09;12.40;91.50
67161;DHT22;54088;52.238;21.104;2022-09-21T05:18:35;12.30;91.50
67161;DHT22;54088;52.238;21.104;2022-09-21T05:21:02;12.40;91.60
67161;DHT22;54088;52.238;21.104;2022-09-21T05:23:29;12.40;91.60
67161;DHT22;54088;52.238;21.104;2022-09-21T05:25:56;12.40;91.60
67161;DHT22;54088;52.238;21.104;2022-09-21T05:28:22;12.40;91.50
67161;DHT22;54088;52.238;21.104;2022-09-21T05:33:29;12.40;91.50
67161;DHT22;54088;52.238;21.104;2022-09-21T05:36:23;12.40;91.50
67161;DHT22;54088;52.238;21.104;2022-09-21T05:38:53;12.40;91.40
67161;DHT22;54088;52.238;21.104;2022-09-21T05:41:19;12.40;91.30
67161;DHT22;54088;52.238;21.104;2022-09-21T05:43:45;12.50;91.30
67161;DHT22;54088;52.238;21.104;2022-09-21T05:52:21;12.60;90.80
67161;DHT22;54088;52.238;21.104;2022-09-21T05:57:45;12.70;90.80
67161;DHT22;54088;52.238;21.104;2022-09-21T06:00:19;12.70;90.80
67161;DHT22;54088;52.238;21.104;2022-09-21T06:05:48;12.70;90.70
67161;DHT22;54088;52.238;21.104;2022-09-21T06:08:13;12.80;90.50
67161;DHT22;54088;52.238;21.104;2022-09-21T06:10:39;12.80;90.60
67161;DHT22;54088;52.238;21.104;2022-09-21T06:13:05;12.90;90.60
67161;DHT22;54088;52.238;21.104;2022-09-21T06:15:33;12.90;90.60
67161;DHT22;54088;52.238;21.104;2022-09-21T06:18:05;13.00;90.40
67161;DHT22;54088;52.238;21.104;2022-09-21T06:20:31;13.10;90.10
67161;DHT22;54088;52.238;21.104;2022-09-21T06:23:05;13.20;89.90
67161;DHT22;54088;52.238;21.104;2022-09-21T06:25:31;13.40;89.60
67161;DHT22;54088;52.238;21.104;2022-09-21T06:28:08;13.40;89.10
67161;DHT22;54088;52.238;21.104;2022-09-21T06:30:35;13.40;88.90
67161;DHT22;54088;52.238;21.104;2022-09-21T06:33:02;13.40;88.60
67161;DHT22;54088;52.238;21.104;2022-09-21T06:35:29;13.30;88.20
67161;DHT22;54088;52.238;21.104;2022-09-21T06:37:59;13.30;88.50
67161;DHT22;54088;52.238;21.104;2022-09-21T06:40:29;13.30;88.20
67161;DHT22;54088;52.238;21.104;2022-09-21T06:42:56;13.40;88.20
67161;DHT22;54088;52.238;21.104;2022-09-21T06:45:23;13.40;87.70
67161;DHT22;54088;52.238;21.104;2022-09-21T06:47:48;13.40;87.80
67161;DHT22;54088;52.238;21.104;2022-09-21T06:50:14;13.50;87.40
67161;DHT22;54088;52.238;21.104;2022-09-21T06:52:40;13.60;87.50
67161;DHT22;54088;52.238;21.104;2022-09-21T06:55:07;13.70;86.30
67161;DHT22;54088;52.238;21.104;2022-09-21T06:57:34;13.80;85.30
67161;DHT22;54088;52.238;21.104;2022-09-21T07:00:00;13.90;85.30
67161;DHT22;54088;52.238;21.104;2022-09-21T07:02:26;13.90;85.10
67161;DHT22;54088;52.238;21.104;2022-09-21T07:04:52;14.00;85.00
67161;DHT22;54088;52.238;21.104;2022-09-21T07:07:17;13.90;84.50
67161;DHT22;54088;52.238;21.104;2022-09-21T07:09:43;13.90;85.20
67161;DHT22;54088;52.238;21.104;2022-09-21T07:12:09;14.10;84.30
67161;DHT22;54088;52.238;21.104;2022-09-21T07:14:35;14.10;83.90
67161;DHT22;54088;52.238;21.104;2022-09-21T07:17:01;14.20;84.00
67161;DHT22;54088;52.238;21.104;2022-09-21T07:19:26;14.20;83.70
67161;DHT22;54088;52.238;21.104;2022-09-21T07:21:53;14.20;83.00
67161;DHT22;54088;52.238;21.104;2022-09-21T07:24:19;14.20;83.30
67161;DHT22;54088;52.238;21.104;2022-09-21T07:26:45;14.40;83.30
67161;DHT22;54088;52.238;21.104;2022-09-21T07:29:10;14.60;82.70
67161;DHT22;54088;52.238;21.104;2022-09-21T07:31:36;14.60;81.80
67161;DHT22;54088;52.238;21.104;2022-09-21T07:34:02;14.80;81.50
67161;DHT22;54088;52.238;21.104;2022-09-21T07:36:28;14.90;80.90
67161;DHT22;54088;52.238;21.104;2022-09-21T07:38:53;15.00;79.30
67161;DHT22;54088;52.238;21.104;2022-09-21T07:41:19;14.90;78.60
67161;DHT22;54088;52.238;21.104;2022-09-21T07:43:45;14.80;78.30
67161;DHT22;54088;52.238;21.104;2022-09-21T07:46:13;14.80;78.40
67161;DHT22;54088;52.238;21.104;2022-09-21T07:48:39;14.80;78.10
67161;DHT22;54088;52.238;21.104;2022-09-21T07:51:07;14.80;77.90
67161;DHT22;54088;52.238;21.104;2022-09-21T07:53:39;14.80;78.10
67161;DHT22;54088;52.238;21.104;2022-09-21T07:56:10;14.80;77.50
67161;DHT22;54088;52.238;21.104;2022-09-21T07:58:36;14.90;77.30
67161;DHT22;54088;52.238;21.104;2022-09-21T08:01:22;15.10;75.90
67161;DHT22;54088;52.238;21.104;2022-09-21T08:03:52;16.00;75.70
67161;DHT22;54088;52.238;21.104;2022-09-21T08:06:18;16.70;71.60
67161;DHT22;54088;52.238;21.104;2022-09-21T08:08:45;16.60;70.90
67161;DHT22;54088;52.238;21.104;2022-09-21T08:11:13;16.20;71.00
67161;DHT22;54088;52.238;21.104;2022-09-21T08:13:38;16.20;71.60
67161;DHT22;54088;52.238;21.104;2022-09-21T08:16:04;16.20;71.50
67161;DHT22;54088;52.238;21.104;2022-09-21T08:18:30;16.10;72.40
67161;DHT22;54088;52.238;21.104;2022-09-21T08:20:57;16.10;72.20
67161;DHT22;54088;52.238;21.104;2022-09-21T08:23:24;16.00;71.60
67161;DHT22;54088;52.238;21.104;2022-09-21T08:25:58;15.60;73.20
67161;DHT22;54088;52.238;21.104;2022-09-21T08:28:25;15.60;73.00
67161;DHT22;54088;52.238;21.104;2022-09-21T08:30:50;15.40;72.60
67161;DHT22;54088;52.238;21.104;2022-09-21T08:33:16;15.20;73.60
67161;DHT22;54088;52.238;21.104;2022-09-21T08:35:42;15.10;73.80
67161;DHT22;54088;52.238;21.104;2022-09-21T08:38:07;15.10;75.10
67161;DHT22;54088;52.238;21.104;2022-09-21T08:40:33;15.30;75.50
67161;DHT22;54088;52.238;21.104;2022-09-21T08:43:16;15.40;75.40
67161;DHT22;54088;52.238;21.104;2022-09-21T08:45:44;15.30;74.70
67161;DHT22;54088;52.238;21.104;2022-09-21T08:48:23;15.20;75.30
67161;DHT22;54088;52.238;21.104;2022-09-21T08:50:53;15.20;75.30
67161;DHT22;54088;52.238;21.104;2022-09-21T08:55:58;15.20;74.80
67161;DHT22;54088;52.238;21.104;2022-09-21T08:58:25;15.60;72.80
67161;DHT22;54088;52.238;21.104;2022-09-21T09:03:42;16.00;71.90
67161;DHT22;54088;52.238;21.104;2022-09-21T09:06:49;16.10;72.70
67161;DHT22;54088;52.238;21.104;2022-09-21T09:09:25;16.00;72.60
67161;DHT22;54088;52.238;21.104;2022-09-21T09:17:59;15.60;73.20
67161;DHT22;54088;52.238;21.104;2022-09-21T09:20:52;15.60;73.40
67161;DHT22;54088;52.238;21.104;2022-09-21T09:26:18;15.60;73.40
67161;DHT22;54088;52.238;21.104;2022-09-21T09:28:59;15.80;73.50
67161;DHT22;54088;52.238;21.104;2022-09-21T09:31:32;16.10;72.80
67161;DHT22;54088;52.238;21.104;2022-09-21T09:36:35;16.50;71.80
67161;DHT22;54088;52.238;21.104;2022-09-21T09:39:10;16.70;70.80
67161;DHT22;54088;52.238;21.104;2022-09-21T09:47:33;16.80;70.00
67161;DHT22;54088;52.238;21.104;2022-09-21T09:50:03;17.10;70.00
67161;DHT22;54088;52.238;21.104;2022-09-21T09:52:31;17.60;68.30
67161;DHT22;54088;52.238;21.104;2022-09-21T09:55:10;17.70;68.10
67161;DHT22;54088;52.238;21.104;2022-09-21T09:57:39;17.50;65.70
67161;DHT22;54088;52.238;21.104;2022-09-21T10:00:06;17.30;65.80
67161;DHT22;54088;52.238;21.104;2022-09-21T10:02:56;16.90;66.40
67161;DHT22;54088;52.238;21.104;2022-09-21T10:05:32;16.80;68.10
67161;DHT22;54088;52.238;21.104;2022-09-21T10:07:59;16.70;68.80
67161;DHT22;54088;52.238;21.104;2022-09-21T10:13:35;16.30;71.70
67161;DHT22;54088;52.238;21.104;2022-09-21T10:15:59;16.10;73.60
67161;DHT22;54088;52.238;21.104;2022-09-21T10:18:51;16.00;75.50
67161;DHT22;54088;52.238;21.104;2022-09-21T10:21:35;16.00;76.40
67161;DHT22;54088;52.238;21.104;2022-09-21T10:24:25;16.10;76.80
67161;DHT22;54088;52.238;21.104;2022-09-21T10:26:54;16.10;76.30
67161;DHT22;54088;52.238;21.104;2022-09-21T10:32:01;16.40;77.40
67161;DHT22;54088;52.238;21.104;2022-09-21T10:34:32;16.40;77.00
67161;DHT22;54088;52.238;21.104;2022-09-21T10:37:01;16.50;77.60
67161;DHT22;54088;52.238;21.104;2022-09-21T10:39:31;16.40;77.00
67161;DHT22;54088;52.238;21.104;2022-09-21T10:42:00;16.40;76.40
67161;DHT22;54088;52.238;21.104;2022-09-21T10:44:44;16.30;77.00
67161;DHT22;54088;52.238;21.104;2022-09-21T10:55:40;17.10;76.30
67161;DHT22;54088;52.238;21.104;2022-09-21T10:58:11;17.30;76.60
67161;DHT22;54088;52.238;21.104;2022-09-21T11:00:46;17.50;76.70
67161;DHT22;54088;52.238;21.104;2022-09-21T11:06:07;17.20;73.20
67161;DHT22;54088;52.238;21.104;2022-09-21T11:09:02;17.10;73.00
67161;DHT22;54088;52.238;21.104;2022-09-21T11:17:38;17.20;73.90
67161;DHT22;54088;52.238;21.104;2022-09-21T11:26:24;17.70;75.30
67161;DHT22;54088;52.238;21.104;2022-09-21T11:28:37;18.00;73.20
67161;DHT22;54088;52.238;21.104;2022-09-21T11:37:57;18.60;69.20
67161;DHT22;54088;52.238;21.104;2022-09-21T11:40:49;18.70;68.20
67161;DHT22;54088;52.238;21.104;2022-09-21T11:51:12;18.30;67.40
67161;DHT22;54088;52.238;21.104;2022-09-21T11:54:32;18.30;67.40
67161;DHT22;54088;52.238;21.104;2022-09-21T11:57:12;18.30;65.40
67161;DHT22;54088;52.238;21.104;2022-09-21T12:03:09;18.50;66.70
67161;DHT22;54088;52.238;21.104;2022-09-21T12:11:44;18.20;63.00
67161;DHT22;54088;52.238;21.104;2022-09-21T12:14:32;18.10;62.00
67161;DHT22;54088;52.238;21.104;2022-09-21T12:22:41;18.00;62.60
67161;DHT22;54088;52.238;21.104;2022-09-21T12:25:22;18.00;61.80
67161;DHT22;54088;52.238;21.104;2022-09-21T12:27:52;18.00;59.40
67161;DHT22;54088;52.238;21.104;2022-09-21T12:30:22;18.00;60.50
67161;DHT22;54088;52.238;21.104;2022-09-21T12:32:54;18.00;60.90
67161;DHT22;54088;52.238;21.104;2022-09-21T12:41:05;18.00;57.80
67161;DHT22;54088;52.238;21.104;2022-09-21T12:48:39;18.30;58.70
67161;DHT22;54088;52.238;21.104;2022-09-21T12:53:44;18.20;56.50
67161;DHT22;54088;52.238;21.104;2022-09-21T12:56:22;18.30;57.10
67161;DHT22;54088;52.238;21.104;2022-09-21T12:59:12;18.30;54.90
67161;DHT22;54088;52.238;21.104;2022-09-21T13:01:51;18.30;56.10
67161;DHT22;54088;52.238;21.104;2022-09-21T13:04:38;18.30;56.30
67161;DHT22;54088;52.238;21.104;2022-09-21T13:10:07;18.30;55.50
67161;DHT22;54088;52.238;21.104;2022-09-21T13:12:40;18.20;56.60
67161;DHT22;54088;52.238;21.104;2022-09-21T13:15:30;18.20;56.80
67161;DHT22;54088;52.238;21.104;2022-09-21T13:18:02;18.20;55.50
67161;DHT22;54088;52.238;21.104;2022-09-21T13:20:38;18.10;55.30
67161;DHT22;54088;52.238;21.104;2022-09-21T13:23:04;18.00;55.30
67161;DHT22;54088;52.238;21.104;2022-09-21T13:25:32;18.00;56.30
67161;DHT22;54088;52.238;21.104;2022-09-21T13:38:33;17.40;60.40
67161;DHT22;54088;52.238;21.104;2022-09-21T13:54:23;17.20;62.00
67161;DHT22;54088;52.238;21.104;2022-09-21T13:57:20;17.30;61.20
67161;DHT22;54088;52.238;21.104;2022-09-21T14:02:33;17.50;61.00
67161;DHT22;54088;52.238;21.104;2022-09-21T14:05:24;17.40;61.60
67161;DHT22;54088;52.238;21.104;2022-09-21T14:07:59;17.30;61.80
67161;DHT22;54088;52.238;21.104;2022-09-21T14:10:26;17.20;62.00
67161;DHT22;54088;52.238;21.104;2022-09-21T14:12:54;17.20;62.90
67161;DHT22;54088;52.238;21.104;2022-09-21T14:23:36;16.90;64.50
67161;DHT22;54088;52.238;21.104;2022-09-21T14:27:04;16.90;63.60
67161;DHT22;54088;52.238;21.104;2022-09-21T14:29:26;16.80;62.20
67161;DHT22;54088;52.238;21.104;2022-09-21T14:31:56;16.80;62.70
67161;DHT22;54088;52.238;21.104;2022-09-21T14:34:25;16.70;61.40
67161;DHT22;54088;52.238;21.104;2022-09-21T14:36:55;16.80;60.60
67161;DHT22;54088;52.238;21.104;2022-09-21T14:39:31;16.70;60.80
67161;DHT22;54088;52.238;21.104;2022-09-21T14:42:02;16.80;61.70
67161;DHT22;54088;52.238;21.104;2022-09-21T14:44:38;16.80;62.10
67161;DHT22;54088;52.238;21.104;2022-09-21T14:47:31;16.90;62.90
67161;DHT22;54088;52.238;21.104;2022-09-21T14:50:38;17.00;62.80
67161;DHT22;54088;52.238;21.104;2022-09-21T14:53:21;17.10;63.40
67161;DHT22;54088;52.238;21.104;2022-09-21T14:56:23;17.10;63.60
67161;DHT22;54088;52.238;21.104;2022-09-21T15:01:37;16.90;65.00
67161;DHT22;54088;52.238;21.104;2022-09-21T15:07:19;16.60;65.50
67161;DHT22;54088;52.238;21.104;2022-09-21T15:18:20;16.20;67.20
67161;DHT22;54088;52.238;21.104;2022-09-21T15:20:58;16.20;67.40
67161;DHT22;54088;52.238;21.104;2022-09-21T15:23:31;16.20;67.60
67161;DHT22;54088;52.238;21.104;2022-09-21T15:26:24;16.20;68.30
67161;DHT22;54088;52.238;21.104;2022-09-21T15:29:00;16.20;68.40
67161;DHT22;54088;52.238;21.104;2022-09-21T15:31:37;16.10;68.60
67161;DHT22;54088;52.238;21.104;2022-09-21T15:34:05;16.10;69.10
67161;DHT22;54088;52.238;21.104;2022-09-21T15:36:37;16.10;68.80
67161;DHT22;54088;52.238;21.104;2022-09-21T15:39:03;16.00;68.70
67161;DHT22;54088;52.238;21.104;2022-09-21T15:41:40;16.00;68.10
67161;DHT22;54088;52.238;21.104;2022-09-21T15:44:14;16.00;68.50
67161;DHT22;54088;52.238;21.104;2022-09-21T15:46:43;15.90;68.80
67161;DHT22;54088;52.238;21.104;2022-09-21T15:49:14;15.90;69.40
67161;DHT22;54088;52.238;21.104;2022-09-21T15:51:47;15.90;69.70
67161;DHT22;54088;52.238;21.104;2022-09-21T15:56:51;15.80;69.90
67161;DHT22;54088;52.238;21.104;2022-09-21T15:59:19;15.80;69.90
67161;DHT22;54088;52.238;21.104;2022-09-21T16:01:48;15.80;70.10
67161;DHT22;54088;52.238;21.104;2022-09-21T16:04:20;15.70;70.30
67161;DHT22;54088;52.238;21.104;2022-09-21T16:07:00;15.60;71.40
67161;DHT22;54088;52.238;21.104;2022-09-21T16:12:28;15.20;75.20
67161;DHT22;54088;52.238;21.104;2022-09-21T16:15:25;15.10;75.10
67161;DHT22;54088;52.238;21.104;2022-09-21T16:18:00;15.00;76.10
67161;DHT22;54088;52.238;21.104;2022-09-21T16:20:45;15.00;76.60
67161;DHT22;54088;52.238;21.104;2022-09-21T16:23:20;14.80;76.40
67161;DHT22;54088;52.238;21.104;2022-09-21T16:25:57;14.80;76.90
67161;DHT22;54088;52.238;21.104;2022-09-21T16:30:55;14.60;77.30
67161;DHT22;54088;52.238;21.104;2022-09-21T16:33:42;14.60;77.30
67161;DHT22;54088;52.238;21.104;2022-09-21T16:38:59;14.50;77.50
67161;DHT22;54088;52.238;21.104;2022-09-21T16:41:38;14.40;77.60
67161;DHT22;54088;52.238;21.104;2022-09-21T16:44:09;14.40;77.70
67161;DHT22;54088;52.238;21.104;2022-09-21T16:46:35;14.40;78.20
67161;DHT22;54088;52.238;21.104;2022-09-21T16:49:01;14.40;77.90
67161;DHT22;54088;52.238;21.104;2022-09-21T16:51:27;14.30;78.40
67161;DHT22;54088;52.238;21.104;2022-09-21T16:53:54;14.30;78.00
67161;DHT22;54088;52.238;21.104;2022-09-21T16:56:20;14.20;78.10
67161;DHT22;54088;52.238;21.104;2022-09-21T16:58:46;14.20;77.60
67161;DHT22;54088;52.238;21.104;2022-09-21T17:01:16;14.20;77.60
67161;DHT22;54088;52.238;21.104;2022-09-21T17:03:43;14.20;77.50
67161;DHT22;54088;52.238;21.104;2022-09-21T17:06:19;14.10;77.80
67161;DHT22;54088;52.238;21.104;2022-09-21T17:08:46;14.00;77.90
67161;DHT22;54088;52.238;21.104;2022-09-21T17:11:17;14.00;77.80
67161;DHT22;54088;52.238;21.104;2022-09-21T17:13:47;14.00;77.70
67161;DHT22;54088;52.238;21.104;2022-09-21T17:16:14;13.90;77.50
67161;DHT22;54088;52.238;21.104;2022-09-21T17:18:44;13.80;77.90
67161;DHT22;54088;52.238;21.104;2022-09-21T17:21:10;13.90;78.40
67161;DHT22;54088;52.238;21.104;2022-09-21T17:23:36;13.90;78.40
67161;DHT22;54088;52.238;21.104;2022-09-21T17:26:03;13.90;78.10
67161;DHT22;54088;52.238;21.104;2022-09-21T17:28:28;13.90;78.20
67161;DHT22;54088;52.238;21.104;2022-09-21T17:30:54;13.90;78.30
67161;DHT22;54088;52.238;21.104;2022-09-21T17:33:20;13.80;78.10
67161;DHT22;54088;52.238;21.104;2022-09-21T17:35:46;13.80;78.40
67161;DHT22;54088;52.238;21.104;2022-09-21T17:38:15;13.80;78.50
67161;DHT22;54088;52.238;21.104;2022-09-21T17:40:42;13.70;78.40
67161;DHT22;54088;52.238;21.104;2022-09-21T17:43:38;13.70;78.60
67161;DHT22;54088;52.238;21.104;2022-09-21T17:48:49;13.60;79.10
67161;DHT22;54088;52.238;21.104;2022-09-21T17:51:15;13.50;79.20
67161;DHT22;54088;52.238;21.104;2022-09-21T17:54:01;13.40;79.70
67161;DHT22;54088;52.238;21.104;2022-09-21T17:59:32;13.30;80.70
67161;DHT22;54088;52.238;21.104;2022-09-21T18:02:00;13.30;80.70
67161;DHT22;54088;52.238;21.104;2022-09-21T18:04:27;13.20;81.00
67161;DHT22;54088;52.238;21.104;2022-09-21T18:06:55;13.20;81.30
67161;DHT22;54088;52.238;21.104;2022-09-21T18:09:21;13.20;81.60
67161;DHT22;54088;52.238;21.104;2022-09-21T18:23:02;13.00;83.00
67161;DHT22;54088;52.238;21.104;2022-09-21T18:25:33;12.90;83.50
67161;DHT22;54088;52.238;21.104;2022-09-21T18:28:03;12.90;83.60
67161;DHT22;54088;52.238;21.104;2022-09-21T18:30:35;12.90;83.70
67161;DHT22;54088;52.238;21.104;2022-09-21T18:33:18;12.90;83.80
67161;DHT22;54088;52.238;21.104;2022-09-21T18:35:55;12.90;84.20
67161;DHT22;54088;52.238;21.104;2022-09-21T18:38:29;12.80;84.10
67161;DHT22;54088;52.238;21.104;2022-09-21T18:44:06;12.80;84.30
67161;DHT22;54088;52.238;21.104;2022-09-21T18:55:21;12.60;85.70
67161;DHT22;54088;52.238;21.104;2022-09-21T18:57:47;12.50;86.00
67161;DHT22;54088;52.238;21.104;2022-09-21T19:00:13;12.40;86.30
67161;DHT22;54088;52.238;21.104;2022-09-21T19:02:40;12.40;86.50
67161;DHT22;54088;52.238;21.104;2022-09-21T19:05:06;12.30;86.80
67161;DHT22;54088;52.238;21.104;2022-09-21T19:07:40;12.20;87.20
67161;DHT22;54088;52.238;21.104;2022-09-21T19:10:21;12.20;87.30
67161;DHT22;54088;52.238;21.104;2022-09-21T19:15:29;12.10;87.90
67161;DHT22;54088;52.238;21.104;2022-09-21T19:18:37;12.10;88.10
67161;DHT22;54088;52.238;21.104;2022-09-21T19:24:14;12.00;88.40
67161;DHT22;54088;52.238;21.104;2022-09-21T19:27:09;12.10;88.70
67161;DHT22;54088;52.238;21.104;2022-09-21T19:30:13;12.10;88.80
67161;DHT22;54088;52.238;21.104;2022-09-21T19:37:45;12.10;88.80
67161;DHT22;54088;52.238;21.104;2022-09-21T19:40:15;12.10;88.70
67161;DHT22;54088;52.238;21.104;2022-09-21T19:46:04;12.10;88.80
67161;DHT22;54088;52.238;21.104;2022-09-21T19:48:41;12.30;88.80